Time,TemperatureF,DewpointF,PressureIn,WindDirection,WindDirectionDegrees,WindSpeedMPH,WindSpeedGustMPH,Humidity,HourlyPrecipIn,Conditions,Clouds,dailyrainin,SoftwareType,DateUTC
2013-10-04 00:01:00,72.0,64.9,30.03,South,180,3.1,5.6,78,0.00,,,0.00,WUHU21623XXSP,2013-10-04 05:01:00,
2013-10-04 00:02:00,72.0,64.9,30.03,South,180,2.2,5.6,78,0.00,,,0.00,WUHU21623XXSP,2013-10-04 05:02:00,
2013-10-04 00:03:00,72.0,64.9,30.03,SSW,202,3.1,5.6,78,0.00,,,0.00,WUHU21623XXSP,2013-10-04 05:03:00,
2013-10-04 00:06:00,72.0,64.9,30.02,South,180,5.4,6.3,78,0.00,,,0.00,WUHU21623XXSP,2013-10-04 05:06:00,
2013-10-04 00:09:00,71.8,64.7,30.02,South,177,2.8,6.3,78,0.00,,,0.00,WUHU21623XXSP,2013-10-04 05:09:00,
2013-10-04 00:11:00,71.8,64.7,30.02,SSE,168,3.6,6.3,78,0.00,,,0.00,WUHU21623XXSP,2013-10-04 05:11:00,
2013-10-04 00:16:00,71.8,64.7,30.02,South,178,3.2,5.8,78,0.00,,,0.00,WUHU21623XXSP,2013-10-04 05:16:00,
2013-10-04 00:17:00,71.8,64.7,30.02,South,171,3.7,6.7,78,0.00,,,0.00,WUHU21623XXSP,2013-10-04 05:17:00,
2013-10-04 00:19:00,71.8,64.7,30.02,SSE,167,4.5,6.7,78,0.00,,,0.00,WUHU21623XXSP,2013-10-04 05:19:00,
2013-10-04 00:24:00,71.8,64.7,30.02,SSE,167,2.8,6.7,78,0.00,,,0.00,WUHU21623XXSP,2013-10-04 05:24:00,
2013-10-04 00:26:00,71.8,64.7,30.03,South,170,2.0,6.7,78,0.00,,,0.00,WUHU21623XXSP,2013-10-04 05:26:00,
2013-10-04 00:31:00,71.4,64.3,30.02,South,175,2.5,6.7,78,0.00,,,0.00,WUHU21623XXSP,2013-10-04 05:31:00,
2013-10-04 00:36:00,71.4,63.9,30.02,SSE,163,1.8,6.7,77,0.00,,,0.00,WUHU21623XXSP,2013-10-04 05:36:00,
2013-10-04 00:41:00,71.4,63.9,30.02,SSE,157,3.8,6.0,77,0.00,,,0.00,WUHU21623XXSP,2013-10-04 05:41:00,
2013-10-04 00:46:00,71.4,63.9,30.02,South,180,4.7,6.0,77,0.00,,,0.00,WUHU21623XXSP,2013-10-04 05:46:00,
2013-10-04 00:51:00,71.2,63.7,30.02,South,174,3.3,6.9,77,0.00,,,0.00,WUHU21623XXSP,2013-10-04 05:51:00,
2013-10-04 00:56:00,71.2,63.7,30.03,SSW,202,3.8,6.9,77,0.00,,,0.00,WUHU21623XXSP,2013-10-04 05:56:00,
2013-10-04 01:01:00,71.2,63.7,30.02,South,180,4.7,6.0,77,0.00,,,0.00,WUHU21623XXSP,2013-10-04 06:01:00,
2013-10-04 01:06:00,71.1,63.6,30.02,South,182,2.2,6.0,77,0.00,,,0.00,WUHU21623XXSP,2013-10-04 06:06:00,
2013-10-04 01:11:00,70.9,63.4,30.02,South,180,4.3,4.5,77,0.00,,,0.00,WUHU21623XXSP,2013-10-04 06:11:00,
2013-10-04 01:16:00,70.9,63.4,30.02,South,180,5.8,5.8,77,0.00,,,0.00,WUHU21623XXSP,2013-10-04 06:16:00,
2013-10-04 01:21:00,70.9,63.1,30.03,South,180,4.3,6.3,76,0.00,,,0.00,WUHU21623XXSP,2013-10-04 06:21:00,
2013-10-04 01:26:00,70.9,63.1,30.02,South,178,3.6,8.9,76,0.00,,,0.00,WUHU21623XXSP,2013-10-04 06:26:00,
2013-10-04 01:31:00,70.9,63.1,30.03,South,169,2.2,8.9,76,0.00,,,0.00,WUHU21623XXSP,2013-10-04 06:31:00,
2013-10-04 01:36:00,70.7,62.9,30.03,South,185,3.9,7.2,76,0.00,,,0.00,WUHU21623XXSP,2013-10-04 06:36:00,
2013-10-04 01:41:00,70.7,62.9,30.03,SSE,164,3.9,7.2,76,0.00,,,0.00,WUHU21623XXSP,2013-10-04 06:41:00,
2013-10-04 01:46:00,70.7,62.9,30.03,South,170,3.1,6.9,76,0.00,,,0.00,WUHU21623XXSP,2013-10-04 06:46:00,
2013-10-04 01:51:00,70.7,62.9,30.03,South,191,4.8,7.4,76,0.00,,,0.00,WUHU21623XXSP,2013-10-04 06:51:00,
2013-10-04 01:56:00,70.7,62.9,30.03,SSW,192,4.4,8.1,76,0.00,,,0.00,WUHU21623XXSP,2013-10-04 06:56:00,
2013-10-04 02:01:00,70.7,62.9,30.03,South,180,3.1,8.1,76,0.00,,,0.00,WUHU21623XXSP,2013-10-04 07:01:00,
2013-10-04 02:06:00,70.7,62.9,30.03,South,180,3.1,8.1,76,0.00,,,0.00,WUHU21623XXSP,2013-10-04 07:06:00,
2013-10-04 02:11:00,70.7,62.9,30.03,South,180,3.8,6.9,76,0.00,,,0.00,WUHU21623XXSP,2013-10-04 07:11:00,
2013-10-04 02:16:00,70.7,62.9,30.03,SSE,157,5.8,8.5,76,0.00,,,0.00,WUHU21623XXSP,2013-10-04 07:16:00,
2013-10-04 02:21:00,70.7,62.9,30.03,South,180,5.6,9.2,76,0.00,,,0.00,WUHU21623XXSP,2013-10-04 07:21:00,
2013-10-04 02:26:00,70.7,62.9,30.03,SSW,202,3.1,9.2,76,0.00,,,0.00,WUHU21623XXSP,2013-10-04 07:26:00,
2013-10-04 02:31:00,70.7,62.9,30.03,South,183,4.2,8.5,76,0.00,,,0.00,WUHU21623XXSP,2013-10-04 07:31:00,
2013-10-04 02:36:00,70.5,63.1,30.03,South,188,4.6,8.5,77,0.00,,,0.00,WUHU21623XXSP,2013-10-04 07:36:00,
2013-10-04 02:41:00,70.5,63.1,30.03,South,180,3.6,7.2,77,0.00,,,0.00,WUHU21623XXSP,2013-10-04 07:41:00,
2013-10-04 02:46:00,70.5,63.1,30.03,South,187,3.6,7.8,77,0.00,,,0.00,WUHU21623XXSP,2013-10-04 07:46:00,
2013-10-04 02:51:00,70.5,63.1,30.03,SSW,202,4.9,7.8,77,0.00,,,0.00,WUHU21623XXSP,2013-10-04 07:51:00,
2013-10-04 02:56:00,70.5,63.1,30.03,South,182,4.3,6.9,77,0.00,,,0.00,WUHU21623XXSP,2013-10-04 07:56:00,
2013-10-04 03:01:00,70.5,63.1,30.03,South,179,4.6,6.7,77,0.00,,,0.00,WUHU21623XXSP,2013-10-04 08:01:00,
2013-10-04 03:06:00,70.5,63.1,30.03,South,180,4.3,6.9,77,0.00,,,0.00,WUHU21623XXSP,2013-10-04 08:06:00,
2013-10-04 03:11:00,70.5,63.1,30.03,South,180,6.7,9.4,77,0.00,,,0.00,WUHU21623XXSP,2013-10-04 08:11:00,
2013-10-04 03:16:00,70.5,63.1,30.03,South,180,6.0,9.4,77,0.00,,,0.00,WUHU21623XXSP,2013-10-04 08:16:00,
2013-10-04 03:21:00,70.5,63.1,30.03,SSW,202,6.5,7.4,77,0.00,,,0.00,WUHU21623XXSP,2013-10-04 08:21:00,
2013-10-04 03:26:00,70.3,62.9,30.03,South,180,4.5,6.9,77,0.00,,,0.00,WUHU21623XXSP,2013-10-04 08:26:00,
2013-10-04 03:31:00,70.3,62.9,30.03,South,172,3.6,7.2,77,0.00,,,0.00,WUHU21623XXSP,2013-10-04 08:31:00,
2013-10-04 03:36:00,70.3,62.5,30.03,South,180,4.7,7.6,76,0.00,,,0.00,WUHU21623XXSP,2013-10-04 08:36:00,
2013-10-04 03:41:00,70.3,62.5,30.03,SSW,202,5.4,7.6,76,0.00,,,0.00,WUHU21623XXSP,2013-10-04 08:41:00,
2013-10-04 03:46:00,70.2,62.4,30.02,South,180,4.3,6.7,76,0.00,,,0.00,WUHU21623XXSP,2013-10-04 08:46:00,
2013-10-04 03:51:00,70.2,62.4,30.03,South,174,2.0,7.2,76,0.00,,,0.00,WUHU21623XXSP,2013-10-04 08:51:00,
2013-10-04 03:56:00,70.0,62.2,30.03,South,180,2.7,7.2,76,0.00,,,0.00,WUHU21623XXSP,2013-10-04 08:56:00,
2013-10-04 04:01:00,70.0,62.2,30.03,South,181,3.6,6.3,76,0.00,,,0.00,WUHU21623XXSP,2013-10-04 09:01:00,
2013-10-04 04:06:00,70.0,62.2,30.03,South,180,2.2,6.3,76,0.00,,,0.00,WUHU21623XXSP,2013-10-04 09:06:00,
2013-10-04 04:11:00,70.0,62.2,30.03,South,172,3.1,6.3,76,0.00,,,0.00,WUHU21623XXSP,2013-10-04 09:11:00,
2013-10-04 04:16:00,70.0,62.2,30.02,South,181,5.5,8.9,76,0.00,,,0.00,WUHU21623XXSP,2013-10-04 09:16:00,
2013-10-04 04:21:00,70.0,62.2,30.02,South,182,4.7,8.9,76,0.00,,,0.00,WUHU21623XXSP,2013-10-04 09:21:00,
2013-10-04 04:26:00,70.0,62.2,30.02,South,180,6.0,8.5,76,0.00,,,0.00,WUHU21623XXSP,2013-10-04 09:26:00,
2013-10-04 04:31:00,70.0,62.2,30.03,South,180,4.7,6.7,76,0.00,,,0.00,WUHU21623XXSP,2013-10-04 09:31:00,
2013-10-04 04:36:00,69.8,62.0,30.02,SSW,193,3.9,7.2,76,0.00,,,0.00,WUHU21623XXSP,2013-10-04 09:36:00,
2013-10-04 04:41:00,69.8,62.0,30.02,South,184,4.3,7.2,76,0.00,,,0.00,WUHU21623XXSP,2013-10-04 09:41:00,
2013-10-04 04:46:00,69.6,61.8,30.02,South,176,2.0,6.7,76,0.00,,,0.00,WUHU21623XXSP,2013-10-04 09:46:00,
2013-10-04 04:51:00,69.6,61.8,30.03,South,190,4.1,6.3,76,0.00,,,0.00,WUHU21623XXSP,2013-10-04 09:51:00,
2013-10-04 04:56:00,69.6,61.8,30.03,South,180,4.7,6.3,76,0.00,,,0.00,WUHU21623XXSP,2013-10-04 09:56:00,
2013-10-04 05:01:00,69.6,61.8,30.03,South,174,3.0,5.4,76,0.00,,,0.00,WUHU21623XXSP,2013-10-04 10:01:00,
2013-10-04 05:06:00,69.6,61.8,30.03,South,178,1.9,4.7,76,0.00,,,0.00,WUHU21623XXSP,2013-10-04 10:06:00,
2013-10-04 05:11:00,69.6,61.8,30.02,South,183,2.8,6.3,76,0.00,,,0.00,WUHU21623XXSP,2013-10-04 10:11:00,
2013-10-04 05:16:00,69.6,61.8,30.03,SW,225,3.6,6.3,76,0.00,,,0.00,WUHU21623XXSP,2013-10-04 10:16:00,
2013-10-04 05:21:00,69.6,61.8,30.02,South,172,2.1,5.6,76,0.00,,,0.00,WUHU21623XXSP,2013-10-04 10:21:00,
2013-10-04 05:26:00,69.4,61.6,30.03,South,187,1.9,5.4,76,0.00,,,0.00,WUHU21623XXSP,2013-10-04 10:26:00,
2013-10-04 05:31:00,69.4,61.6,30.03,South,184,3.7,6.5,76,0.00,,,0.00,WUHU21623XXSP,2013-10-04 10:31:00,
2013-10-04 05:36:00,69.4,61.3,30.03,South,180,2.7,6.5,75,0.00,,,0.00,WUHU21623XXSP,2013-10-04 10:36:00,
2013-10-04 05:41:00,69.3,61.2,30.03,South,180,3.8,4.5,75,0.00,,,0.00,WUHU21623XXSP,2013-10-04 10:41:00,
2013-10-04 05:46:00,69.3,61.2,30.03,South,174,2.2,5.1,75,0.00,,,0.00,WUHU21623XXSP,2013-10-04 10:46:00,
2013-10-04 05:51:00,69.3,61.2,30.03,South,184,2.8,6.3,75,0.00,,,0.00,WUHU21623XXSP,2013-10-04 10:51:00,
2013-10-04 05:56:00,69.3,61.2,30.03,South,186,2.6,6.3,75,0.00,,,0.00,WUHU21623XXSP,2013-10-04 10:56:00,
2013-10-04 06:01:00,69.1,61.0,30.03,SSW,202,5.4,5.6,75,0.00,,,0.00,WUHU21623XXSP,2013-10-04 11:01:00,
2013-10-04 06:06:00,69.3,61.2,30.03,South,190,2.9,6.0,75,0.00,,,0.00,WUHU21623XXSP,2013-10-04 11:06:00,
2013-10-04 06:11:00,69.3,61.2,30.04,South,172,2.2,6.5,75,0.00,,,0.00,WUHU21623XXSP,2013-10-04 11:11:00,
2013-10-04 06:16:00,69.4,61.3,30.04,South,180,4.9,6.5,75,0.00,,,0.00,WUHU21623XXSP,2013-10-04 11:16:00,
2013-10-04 06:21:00,69.4,61.3,30.03,South,187,2.5,5.4,75,0.00,,,0.00,WUHU21623XXSP,2013-10-04 11:21:00,
2013-10-04 06:26:00,69.4,61.3,30.04,SSW,202,3.8,6.5,75,0.00,,,0.00,WUHU21623XXSP,2013-10-04 11:26:00,
2013-10-04 06:31:00,69.4,61.3,30.04,South,186,3.2,6.5,75,0.00,,,0.00,WUHU21623XXSP,2013-10-04 11:31:00,
2013-10-04 06:36:00,69.4,61.3,30.05,South,177,3.8,6.0,75,0.00,,,0.00,WUHU21623XXSP,2013-10-04 11:36:00,
2013-10-04 06:41:00,69.4,61.3,30.05,South,180,3.1,5.6,75,0.00,,,0.00,WUHU21623XXSP,2013-10-04 11:41:00,
2013-10-04 06:46:00,69.4,61.3,30.05,South,186,2.5,5.1,75,0.00,,,0.00,WUHU21623XXSP,2013-10-04 11:46:00,
2013-10-04 06:51:00,69.3,61.2,30.05,South,180,2.0,4.9,75,0.00,,,0.00,WUHU21623XXSP,2013-10-04 11:51:00,
2013-10-04 06:56:00,69.1,61.0,30.05,SSE,157,6.5,6.5,75,0.00,,,0.00,WUHU21623XXSP,2013-10-04 11:56:00,
2013-10-04 07:01:00,69.1,60.6,30.05,South,181,3.2,6.5,74,0.00,,,0.00,WUHU21623XXSP,2013-10-04 12:01:00,
2013-10-04 07:06:00,69.1,60.6,30.05,South,180,1.8,4.7,74,0.00,,,0.00,WUHU21623XXSP,2013-10-04 12:06:00,
2013-10-04 07:11:00,69.1,60.6,30.05,South,183,3.1,5.1,74,0.00,,,0.00,WUHU21623XXSP,2013-10-04 12:11:00,
2013-10-04 07:16:00,69.3,60.8,30.05,SSE,157,1.6,5.1,74,0.00,,,0.00,WUHU21623XXSP,2013-10-04 12:16:00,
2013-10-04 07:21:00,69.3,60.8,30.05,South,179,2.2,4.7,74,0.00,,,0.00,WUHU21623XXSP,2013-10-04 12:21:00,
2013-10-04 07:26:00,69.4,60.9,30.05,South,183,1.9,6.9,74,0.00,,,0.00,WUHU21623XXSP,2013-10-04 12:26:00,
2013-10-04 07:31:00,69.4,60.9,30.06,South,180,2.9,6.9,74,0.00,,,0.00,WUHU21623XXSP,2013-10-04 12:31:00,
2013-10-04 07:36:00,69.6,61.1,30.06,South,180,3.1,4.7,74,0.00,,,0.00,WUHU21623XXSP,2013-10-04 12:36:00,
2013-10-04 07:41:00,69.6,61.1,30.06,South,180,1.6,4.3,74,0.00,,,0.00,WUHU21623XXSP,2013-10-04 12:41:00,
2013-10-04 07:46:00,70.0,61.5,30.06,South,180,3.1,5.4,74,0.00,,,0.00,WUHU21623XXSP,2013-10-04 12:46:00,
2013-10-04 07:51:00,70.2,61.7,30.06,South,184,2.4,5.4,74,0.00,,,0.00,WUHU21623XXSP,2013-10-04 12:51:00,
2013-10-04 07:56:00,70.3,61.4,30.06,South,184,2.5,5.4,73,0.00,,,0.00,WUHU21623XXSP,2013-10-04 12:56:00,
2013-10-04 08:01:00,70.7,61.8,30.06,South,178,4.2,7.2,73,0.00,,,0.00,WUHU21623XXSP,2013-10-04 13:01:00,
2013-10-04 08:06:00,71.2,62.3,30.06,SSE,157,4.7,7.2,73,0.00,,,0.00,WUHU21623XXSP,2013-10-04 13:06:00,
2013-10-04 08:11:00,72.0,63.4,30.06,SSW,202,4.3,6.5,74,0.00,,,0.00,WUHU21623XXSP,2013-10-04 13:11:00,
2013-10-04 08:16:00,72.7,64.5,30.06,SSE,157,4.0,6.5,75,0.00,,,0.00,WUHU21623XXSP,2013-10-04 13:16:00,
2013-10-04 08:21:00,73.2,65.3,30.06,South,179,2.5,6.5,76,0.00,,,0.00,WUHU21623XXSP,2013-10-04 13:21:00,
2013-10-04 08:26:00,74.1,66.2,30.06,SSW,202,2.9,5.6,76,0.00,,,0.00,WUHU21623XXSP,2013-10-04 13:26:00,
2013-10-04 08:31:00,75.0,67.4,30.06,SSE,166,4.4,7.4,77,0.00,,,0.00,WUHU21623XXSP,2013-10-04 13:31:00,
2013-10-04 08:36:00,75.4,68.2,30.07,SSW,204,5.1,11.9,78,0.00,,,0.00,WUHU21623XXSP,2013-10-04 13:36:00,
2013-10-04 08:41:00,75.9,68.7,30.07,SSW,202,8.7,11.9,78,0.00,,,0.00,WUHU21623XXSP,2013-10-04 13:41:00,
2013-10-04 08:46:00,76.1,68.9,30.07,SSW,198,7.5,11.2,78,0.00,,,0.00,WUHU21623XXSP,2013-10-04 13:46:00,
2013-10-04 08:51:00,76.5,69.3,30.07,SSW,209,7.4,11.2,78,0.00,,,0.00,WUHU21623XXSP,2013-10-04 13:51:00,
2013-10-04 08:56:00,76.8,69.5,30.07,SSW,198,5.5,10.5,78,0.00,,,0.00,WUHU21623XXSP,2013-10-04 13:56:00,
2013-10-04 09:01:00,77.4,70.1,30.07,SSW,202,6.9,10.1,78,0.00,,,0.00,WUHU21623XXSP,2013-10-04 14:01:00,
2013-10-04 09:06:00,77.9,70.6,30.07,SSW,204,7.0,10.5,78,0.00,,,0.00,WUHU21623XXSP,2013-10-04 14:06:00,
2013-10-04 09:11:00,78.4,70.7,30.07,SSW,202,7.4,13.0,77,0.00,,,0.00,WUHU21623XXSP,2013-10-04 14:11:00,
2013-10-04 09:16:00,79.0,71.3,30.08,SSE,157,5.8,13.0,77,0.00,,,0.00,WUHU21623XXSP,2013-10-04 14:16:00,
2013-10-04 09:21:00,79.3,71.2,30.08,SW,218,7.4,12.3,76,0.00,,,0.00,WUHU21623XXSP,2013-10-04 14:21:00,
2013-10-04 09:26:00,79.2,71.1,30.08,SSW,195,4.8,12.3,76,0.00,,,0.00,WUHU21623XXSP,2013-10-04 14:26:00,
2013-10-04 09:31:00,79.2,71.1,30.08,South,180,5.4,8.9,76,0.00,,,0.00,WUHU21623XXSP,2013-10-04 14:31:00,
2013-10-04 09:36:00,79.5,71.4,30.08,SW,225,6.9,8.9,76,0.00,,,0.00,WUHU21623XXSP,2013-10-04 14:36:00,
2013-10-04 09:41:00,79.3,71.2,30.08,SSE,157,4.3,8.7,76,0.00,,,0.00,WUHU21623XXSP,2013-10-04 14:41:00,
2013-10-04 09:46:00,79.0,70.9,30.08,South,186,3.3,7.4,76,0.00,,,0.00,WUHU21623XXSP,2013-10-04 14:46:00,
2013-10-04 09:51:00,78.6,70.6,30.08,South,177,4.2,7.4,76,0.00,,,0.00,WUHU21623XXSP,2013-10-04 14:51:00,
2013-10-04 09:56:00,78.4,70.4,30.08,SSW,202,4.7,8.1,76,0.00,,,0.00,WUHU21623XXSP,2013-10-04 14:56:00,
2013-10-04 10:01:00,78.1,70.1,30.08,South,173,4.6,9.4,76,0.00,,,0.00,WUHU21623XXSP,2013-10-04 15:01:00,
2013-10-04 10:06:00,77.9,70.3,30.08,SSW,202,8.3,9.4,77,0.00,,,0.00,WUHU21623XXSP,2013-10-04 15:06:00,
2013-10-04 10:11:00,77.9,70.3,30.08,SSW,200,6.2,9.6,77,0.00,,,0.00,WUHU21623XXSP,2013-10-04 15:11:00,
2013-10-04 10:16:00,78.1,70.4,30.08,South,190,3.1,9.6,77,0.00,,,0.00,WUHU21623XXSP,2013-10-04 15:16:00,
2013-10-04 10:18:00,78.1,70.4,30.08,South,175,1.5,9.6,77,0.00,,,0.00,WUHU21623XXSP,2013-10-04 15:18:00,
2013-10-04 10:23:00,78.3,70.6,30.08,SW,225,4.9,7.2,77,0.00,,,0.00,WUHU21623XXSP,2013-10-04 15:23:00,
2013-10-04 10:28:00,78.6,70.9,30.08,South,180,8.1,8.1,77,0.00,,,0.00,WUHU21623XXSP,2013-10-04 15:28:00,
2013-10-04 10:33:00,79.0,70.9,30.08,South,180,5.8,8.1,76,0.00,,,0.00,WUHU21623XXSP,2013-10-04 15:33:00,
2013-10-04 10:38:00,79.0,70.9,30.08,SSW,196,1.3,7.8,76,0.00,,,0.00,WUHU21623XXSP,2013-10-04 15:38:00,
2013-10-04 10:43:00,79.9,71.8,30.08,South,180,7.2,9.4,76,0.00,,,0.00,WUHU21623XXSP,2013-10-04 15:43:00,
2013-10-04 10:48:00,80.4,71.9,30.07,South,177,3.8,9.4,75,0.00,,,0.00,WUHU21623XXSP,2013-10-04 15:48:00,
2013-10-04 10:53:00,81.1,72.6,30.07,SW,225,8.9,9.8,75,0.00,,,0.00,WUHU21623XXSP,2013-10-04 15:53:00,
2013-10-04 10:58:00,82.0,72.7,30.07,South,191,7.2,11.6,73,0.00,,,0.00,WUHU21623XXSP,2013-10-04 15:58:00,
2013-10-04 11:03:00,82.4,72.7,30.07,SW,225,13.2,13.2,72,0.00,,,0.00,WUHU21623XXSP,2013-10-04 16:03:00,
2013-10-04 11:08:00,82.9,73.2,30.07,SSW,193,3.7,14.8,72,0.00,,,0.00,WUHU21623XXSP,2013-10-04 16:08:00,
2013-10-04 11:13:00,82.8,72.7,30.07,SW,225,10.7,14.8,71,0.00,,,0.00,WUHU21623XXSP,2013-10-04 16:13:00,
2013-10-04 11:18:00,82.6,72.9,30.07,South,180,5.1,13.9,72,0.00,,,0.00,WUHU21623XXSP,2013-10-04 16:18:00,
2013-10-04 11:23:00,82.6,72.9,30.07,SSE,157,13.6,14.1,72,0.00,,,0.00,WUHU21623XXSP,2013-10-04 16:23:00,
2013-10-04 11:28:00,82.8,72.3,30.07,SSE,167,7.5,14.1,70,0.00,,,0.00,WUHU21623XXSP,2013-10-04 16:28:00,
2013-10-04 11:33:00,82.6,72.5,30.07,SSW,202,6.7,13.6,71,0.00,,,0.00,WUHU21623XXSP,2013-10-04 16:33:00,
2013-10-04 11:38:00,82.2,72.1,30.07,SSW,202,10.1,12.8,71,0.00,,,0.00,WUHU21623XXSP,2013-10-04 16:38:00,
2013-10-04 11:43:00,82.4,72.7,30.07,SSW,197,5.5,15.7,72,0.00,,,0.00,WUHU21623XXSP,2013-10-04 16:43:00,
2013-10-04 11:48:00,82.6,72.9,30.07,South,180,9.2,15.7,72,0.00,,,0.00,WUHU21623XXSP,2013-10-04 16:48:00,
2013-10-04 11:53:00,82.2,72.1,30.07,SSW,192,9.4,12.8,71,0.00,,,0.00,WUHU21623XXSP,2013-10-04 16:53:00,
2013-10-04 11:58:00,82.0,71.9,30.07,SSW,205,8.2,12.8,71,0.00,,,0.00,WUHU21623XXSP,2013-10-04 16:58:00,
2013-10-04 12:03:00,82.0,71.9,30.07,South,187,7.4,12.3,71,0.00,,,0.00,WUHU21623XXSP,2013-10-04 17:03:00,
2013-10-04 12:08:00,82.6,72.9,30.06,SSW,202,8.3,12.3,72,0.00,,,0.00,WUHU21623XXSP,2013-10-04 17:08:00,
2013-10-04 12:13:00,82.9,73.2,30.06,SSW,202,7.2,12.5,72,0.00,,,0.00,WUHU21623XXSP,2013-10-04 17:13:00,
2013-10-04 12:18:00,83.8,74.0,30.06,SW,230,7.3,15.0,72,0.00,,,0.00,WUHU21623XXSP,2013-10-04 17:18:00,
2013-10-04 12:23:00,84.4,73.4,30.06,South,175,6.5,15.0,69,0.00,,,0.00,WUHU21623XXSP,2013-10-04 17:23:00,
2013-10-04 12:28:00,84.4,73.8,30.06,SW,225,7.7,11.6,70,0.00,,,0.00,WUHU21623XXSP,2013-10-04 17:28:00,
2013-10-04 12:33:00,84.7,74.1,30.05,WSW,247,11.4,15.9,70,0.00,,,0.00,WUHU21623XXSP,2013-10-04 17:33:00,
2013-10-04 13:03:00,85.3,73.8,30.04,SW,225,13.0,15.2,68,0.00,,,0.00,WUHU21623XXSP,2013-10-04 18:03:00,
2013-10-04 13:08:00,85.6,74.1,30.04,SSW,208,7.4,14.8,68,0.00,,,0.00,WUHU21623XXSP,2013-10-04 18:08:00,
2013-10-04 13:13:00,86.0,74.5,30.03,SW,225,10.5,16.6,68,0.00,,,0.00,WUHU21623XXSP,2013-10-04 18:13:00,
2013-10-04 13:18:00,86.2,74.7,30.03,SSW,202,17.4,17.4,68,0.00,,,0.00,WUHU21623XXSP,2013-10-04 18:18:00,
2013-10-04 13:23:00,86.4,74.0,30.03,WSW,247,9.8,17.4,66,0.00,,,0.00,WUHU21623XXSP,2013-10-04 18:23:00,
2013-10-04 13:28:00,86.2,73.8,30.03,SW,225,15.7,17.4,66,0.00,,,0.00,WUHU21623XXSP,2013-10-04 18:28:00,
2013-10-04 13:33:00,85.8,73.0,30.03,South,184,6.8,16.1,65,0.00,,,0.00,WUHU21623XXSP,2013-10-04 18:33:00,
2013-10-04 13:38:00,85.5,73.1,30.03,South,180,11.2,15.7,66,0.00,,,0.00,WUHU21623XXSP,2013-10-04 18:38:00,
2013-10-04 13:43:00,85.3,72.9,30.03,South,180,8.7,14.1,66,0.00,,,0.00,WUHU21623XXSP,2013-10-04 18:43:00,
2013-10-04 13:48:00,85.6,73.7,30.03,SW,222,12.1,21.0,67,0.00,,,0.00,WUHU21623XXSP,2013-10-04 18:48:00,
2013-10-04 13:53:00,86.0,74.0,30.03,SSW,212,7.9,21.0,67,0.00,,,0.00,WUHU21623XXSP,2013-10-04 18:53:00,
2013-10-04 13:58:00,86.7,74.7,30.02,SW,218,7.1,13.2,67,0.00,,,0.00,WUHU21623XXSP,2013-10-04 18:58:00,
2013-10-04 14:03:00,86.9,74.9,30.02,SW,225,6.7,12.8,67,0.00,,,0.00,WUHU21623XXSP,2013-10-04 19:03:00,
2013-10-04 14:08:00,87.1,73.7,30.02,SSW,202,8.5,14.3,64,0.00,,,0.00,WUHU21623XXSP,2013-10-04 19:08:00,
2013-10-04 14:13:00,86.5,73.6,30.02,SE,135,6.7,14.3,65,0.00,,,0.00,WUHU21623XXSP,2013-10-04 19:13:00,
2013-10-04 14:18:00,86.2,72.9,30.02,SSW,205,7.4,15.2,64,0.00,,,0.00,WUHU21623XXSP,2013-10-04 19:18:00,
2013-10-04 14:23:00,86.0,72.7,30.02,SSW,202,10.5,15.2,64,0.00,,,0.00,WUHU21623XXSP,2013-10-04 19:23:00,
2013-10-04 14:28:00,85.8,72.5,30.02,South,180,6.3,14.1,64,0.00,,,0.00,WUHU21623XXSP,2013-10-04 19:28:00,
2013-10-04 14:33:00,86.0,73.1,30.02,SSW,203,7.6,14.1,65,0.00,,,0.00,WUHU21623XXSP,2013-10-04 19:33:00,
2013-10-04 14:38:00,85.8,73.0,30.02,SW,225,8.7,13.0,65,0.00,,,0.00,WUHU21623XXSP,2013-10-04 19:38:00,
2013-10-04 14:43:00,85.6,73.2,30.01,SSW,202,12.1,13.6,66,0.00,,,0.00,WUHU21623XXSP,2013-10-04 19:43:00,
2013-10-04 14:48:00,85.6,73.7,30.01,SW,225,11.2,14.3,67,0.00,,,0.00,WUHU21623XXSP,2013-10-04 19:48:00,
2013-10-04 14:53:00,86.4,74.0,30.01,SW,218,11.0,14.5,66,0.00,,,0.00,WUHU21623XXSP,2013-10-04 19:53:00,
2013-10-04 14:58:00,86.7,73.8,30.01,South,180,9.6,14.5,65,0.00,,,0.00,WUHU21623XXSP,2013-10-04 19:58:00,
2013-10-04 15:03:00,86.2,73.3,30.01,SW,214,4.6,12.8,65,0.00,,,0.00,WUHU21623XXSP,2013-10-04 20:03:00,
2013-10-04 15:08:00,85.8,73.0,30.01,SSW,202,9.8,11.6,65,0.00,,,0.00,WUHU21623XXSP,2013-10-04 20:08:00,
2013-10-04 15:13:00,84.9,72.5,30.01,South,180,8.3,11.6,66,0.00,,,0.00,WUHU21623XXSP,2013-10-04 20:13:00,
2013-10-04 15:18:00,84.6,72.7,30.01,SSW,202,6.0,13.6,67,0.00,,,0.00,WUHU21623XXSP,2013-10-04 20:18:00,
2013-10-04 15:23:00,84.9,73.4,30.01,WSW,239,7.9,13.6,68,0.00,,,0.00,WUHU21623XXSP,2013-10-04 20:23:00,
2013-10-04 15:28:00,85.3,73.4,30.00,SSW,202,10.7,18.1,67,0.00,,,0.00,WUHU21623XXSP,2013-10-04 20:28:00,
2013-10-04 15:33:00,85.6,73.2,30.00,SW,225,11.0,18.1,66,0.00,,,0.00,WUHU21623XXSP,2013-10-04 20:33:00,
2013-10-04 15:38:00,85.8,73.4,30.00,SSW,207,6.9,12.8,66,0.00,,,0.00,WUHU21623XXSP,2013-10-04 20:38:00,
2013-10-04 15:43:00,85.8,73.8,30.01,SW,217,7.3,13.6,67,0.00,,,0.00,WUHU21623XXSP,2013-10-04 20:43:00,
2013-10-04 15:48:00,85.8,73.4,30.01,South,169,6.2,15.2,66,0.00,,,0.00,WUHU21623XXSP,2013-10-04 20:48:00,
2013-10-04 15:53:00,85.3,72.5,30.00,SSE,157,13.4,15.2,65,0.00,,,0.00,WUHU21623XXSP,2013-10-04 20:53:00,
2013-10-04 15:58:00,84.9,72.5,30.00,South,176,7.6,13.4,66,0.00,,,0.00,WUHU21623XXSP,2013-10-04 20:58:00,
2013-10-04 16:03:00,84.4,72.5,30.00,SSE,157,7.2,27.3,67,0.00,,,0.00,WUHU21623XXSP,2013-10-04 21:03:00,
2013-10-04 16:08:00,83.8,72.4,30.00,South,176,4.7,27.3,68,0.00,,,0.00,WUHU21623XXSP,2013-10-04 21:08:00,
2013-10-04 16:13:00,83.1,72.1,30.00,South,184,4.3,13.0,69,0.00,,,0.00,WUHU21623XXSP,2013-10-04 21:13:00,
2013-10-04 16:18:00,82.9,72.3,30.00,SSW,202,3.1,6.7,70,0.00,,,0.00,WUHU21623XXSP,2013-10-04 21:18:00,
2013-10-04 16:23:00,82.9,72.8,30.00,South,183,2.0,7.6,71,0.00,,,0.00,WUHU21623XXSP,2013-10-04 21:23:00,
2013-10-04 16:28:00,83.3,72.7,30.00,South,180,5.4,8.7,70,0.00,,,0.00,WUHU21623XXSP,2013-10-04 21:28:00,
2013-10-04 16:33:00,83.1,72.5,30.00,South,175,4.5,8.7,70,0.00,,,0.00,WUHU21623XXSP,2013-10-04 21:33:00,
2013-10-04 16:38:00,83.1,73.0,30.00,SSW,202,7.4,7.4,71,0.00,,,0.00,WUHU21623XXSP,2013-10-04 21:38:00,
2013-10-04 16:43:00,83.3,73.1,30.00,South,178,2.5,7.4,71,0.00,,,0.00,WUHU21623XXSP,2013-10-04 21:43:00,
2013-10-04 16:48:00,83.5,72.9,30.00,SSE,166,6.1,10.3,70,0.00,,,0.00,WUHU21623XXSP,2013-10-04 21:48:00,
2013-10-04 16:53:00,83.1,72.1,30.00,SSW,202,7.4,11.2,69,0.00,,,0.00,WUHU21623XXSP,2013-10-04 21:53:00,
2013-10-04 16:58:00,83.1,72.1,30.00,South,190,5.8,11.6,69,0.00,,,0.00,WUHU21623XXSP,2013-10-04 21:58:00,
2013-10-04 17:03:00,82.9,71.9,29.99,SSW,198,6.5,11.6,69,0.00,,,0.00,WUHU21623XXSP,2013-10-04 22:03:00,
2013-10-04 17:08:00,82.8,72.3,29.99,South,183,6.2,10.5,70,0.00,,,0.00,WUHU21623XXSP,2013-10-04 22:08:00,
2013-10-04 17:13:00,82.9,72.3,29.99,South,189,7.2,15.0,70,0.00,,,0.00,WUHU21623XXSP,2013-10-04 22:13:00,
2013-10-04 17:18:00,82.9,71.9,29.99,South,187,6.2,15.0,69,0.00,,,0.00,WUHU21623XXSP,2013-10-04 22:18:00,
2013-10-04 17:23:00,83.1,72.1,29.99,South,182,6.8,13.0,69,0.00,,,0.00,WUHU21623XXSP,2013-10-04 22:23:00,
2013-10-04 17:28:00,83.1,72.1,29.99,South,186,5.6,12.1,69,0.00,,,0.00,WUHU21623XXSP,2013-10-04 22:28:00,
2013-10-04 17:33:00,82.9,71.9,29.99,South,186,5.5,13.0,69,0.00,,,0.00,WUHU21623XXSP,2013-10-04 22:33:00,
2013-10-04 17:38:00,82.6,72.1,29.99,South,180,10.5,13.0,70,0.00,,,0.00,WUHU21623XXSP,2013-10-04 22:38:00,
2013-10-04 17:43:00,82.2,71.7,29.99,SSE,157,12.1,12.1,70,0.00,,,0.00,WUHU21623XXSP,2013-10-04 22:43:00,
2013-10-04 17:48:00,82.0,71.5,29.99,South,187,6.2,14.3,70,0.00,,,0.00,WUHU21623XXSP,2013-10-04 22:48:00,
2013-10-04 17:53:00,81.7,71.6,29.99,South,180,7.4,14.3,71,0.00,,,0.00,WUHU21623XXSP,2013-10-04 22:53:00,
2013-10-04 17:58:00,81.7,71.6,30.00,South,170,4.8,9.4,71,0.00,,,0.00,WUHU21623XXSP,2013-10-04 22:58:00,
2013-10-04 18:03:00,81.3,71.6,30.00,South,180,8.1,11.0,72,0.00,,,0.00,WUHU21623XXSP,2013-10-04 23:03:00,
2013-10-04 18:08:00,81.1,71.4,30.00,South,185,6.9,11.4,72,0.00,,,0.00,WUHU21623XXSP,2013-10-04 23:08:00,
2013-10-04 18:13:00,81.0,71.3,30.00,ESE,112,9.4,11.6,72,0.00,,,0.00,WUHU21623XXSP,2013-10-04 23:13:00,
2013-10-04 18:18:00,80.8,71.5,30.00,South,173,4.8,11.6,73,0.00,,,0.00,WUHU21623XXSP,2013-10-04 23:18:00,
2013-10-04 18:23:00,80.4,71.2,30.00,SSW,202,6.7,9.2,73,0.00,,,0.00,WUHU21623XXSP,2013-10-04 23:23:00,
2013-10-04 18:28:00,80.2,71.0,30.00,South,184,5.2,9.8,73,0.00,,,0.00,WUHU21623XXSP,2013-10-04 23:28:00,
2013-10-04 18:33:00,80.1,70.9,30.00,South,180,4.9,9.8,73,0.00,,,0.00,WUHU21623XXSP,2013-10-04 23:33:00,
2013-10-04 18:38:00,79.7,70.9,30.00,SSW,202,6.0,8.9,74,0.00,,,0.00,WUHU21623XXSP,2013-10-04 23:38:00,
2013-10-04 18:43:00,79.5,70.7,30.00,South,180,4.3,8.9,74,0.00,,,0.00,WUHU21623XXSP,2013-10-04 23:43:00,
2013-10-04 18:48:00,79.3,70.9,29.99,SSW,202,4.3,6.9,75,0.00,,,0.00,WUHU21623XXSP,2013-10-04 23:48:00,
2013-10-04 18:53:00,79.0,70.6,30.00,South,182,5.0,7.4,75,0.00,,,0.00,WUHU21623XXSP,2013-10-04 23:53:00,
2013-10-04 18:58:00,78.8,70.4,30.00,SSW,202,8.5,8.5,75,0.00,,,0.00,WUHU21623XXSP,2013-10-04 23:58:00,
2013-10-04 19:03:00,78.6,70.6,30.00,South,186,3.9,8.5,76,0.00,,,0.00,WUHU21623XXSP,2013-10-05 00:03:00,
2013-10-04 19:08:00,78.6,70.6,30.00,SSW,202,4.9,8.5,76,0.00,,,0.00,WUHU21623XXSP,2013-10-05 00:08:00,
2013-10-04 19:13:00,78.4,70.4,30.00,South,180,6.3,6.9,76,0.00,,,0.00,WUHU21623XXSP,2013-10-05 00:13:00,
2013-10-04 19:18:00,78.3,70.3,30.00,SSW,202,6.5,6.9,76,0.00,,,0.00,WUHU21623XXSP,2013-10-05 00:18:00,
2013-10-04 19:23:00,77.9,69.9,30.00,SSW,202,5.6,6.9,76,0.00,,,0.00,WUHU21623XXSP,2013-10-05 00:23:00,
2013-10-04 19:28:00,77.7,70.1,30.00,SSE,157,2.6,6.9,77,0.00,,,0.00,WUHU21623XXSP,2013-10-05 00:28:00,
2013-10-04 19:33:00,77.7,70.1,30.00,SSW,202,5.6,7.6,77,0.00,,,0.00,WUHU21623XXSP,2013-10-05 00:33:00,
2013-10-04 19:38:00,77.5,69.9,30.00,SSE,154,2.1,7.6,77,0.00,,,0.00,WUHU21623XXSP,2013-10-05 00:38:00,
2013-10-04 19:43:00,77.4,69.8,30.00,SSE,157,6.0,6.5,77,0.00,,,0.00,WUHU21623XXSP,2013-10-05 00:43:00,
2013-10-04 19:48:00,77.2,69.6,30.00,South,171,3.2,6.5,77,0.00,,,0.00,WUHU21623XXSP,2013-10-05 00:48:00,
2013-10-04 19:53:00,77.2,69.9,30.00,South,182,4.2,6.5,78,0.00,,,0.00,WUHU21623XXSP,2013-10-05 00:53:00,
2013-10-04 19:58:00,77.0,69.7,30.00,SSE,157,4.0,6.5,78,0.00,,,0.00,WUHU21623XXSP,2013-10-05 00:58:00,
2013-10-04 20:03:00,76.8,69.5,30.01,SSE,164,2.3,6.0,78,0.00,,,0.00,WUHU21623XXSP,2013-10-05 01:03:00,
2013-10-04 20:08:00,76.8,69.5,30.01,SE,140,2.0,5.8,78,0.00,,,0.00,WUHU21623XXSP,2013-10-05 01:08:00,
2013-10-04 20:13:00,76.6,69.4,30.01,SE,135,1.1,5.4,78,0.00,,,0.00,WUHU21623XXSP,2013-10-05 01:13:00,
2013-10-04 20:18:00,76.3,69.1,30.01,SSE,166,1.8,2.7,78,0.00,,,0.00,WUHU21623XXSP,2013-10-05 01:18:00,
2013-10-04 20:23:00,76.1,68.5,30.01,SSE,157,1.6,2.7,77,0.00,,,0.00,WUHU21623XXSP,2013-10-05 01:23:00,
2013-10-04 20:28:00,75.9,68.7,30.01,SSW,202,0.7,4.0,78,0.00,,,0.00,WUHU21623XXSP,2013-10-05 01:28:00,
2013-10-04 20:33:00,75.9,68.7,30.01,South,172,0.6,4.0,78,0.00,,,0.00,WUHU21623XXSP,2013-10-05 01:33:00,
2013-10-04 20:38:00,75.7,68.5,30.01,SE,135,1.3,3.6,78,0.00,,,0.00,WUHU21623XXSP,2013-10-05 01:38:00,
2013-10-04 20:43:00,75.6,68.4,30.01,SSE,157,0.7,3.6,78,0.00,,,0.00,WUHU21623XXSP,2013-10-05 01:43:00,
2013-10-04 20:48:00,75.4,68.2,30.01,South,171,2.1,3.1,78,0.00,,,0.00,WUHU21623XXSP,2013-10-05 01:48:00,
2013-10-04 20:53:00,75.4,68.2,30.02,South,180,3.1,3.1,78,0.00,,,0.00,WUHU21623XXSP,2013-10-05 01:53:00,
2013-10-04 20:58:00,75.2,68.0,30.02,South,171,1.8,3.1,78,0.00,,,0.00,WUHU21623XXSP,2013-10-05 01:58:00,
2013-10-04 21:03:00,75.0,67.8,30.02,SSE,162,1.3,3.1,78,0.00,,,0.00,WUHU21623XXSP,2013-10-05 02:03:00,
2013-10-04 21:08:00,75.0,67.8,30.02,SSE,147,1.3,3.8,78,0.00,,,0.00,WUHU21623XXSP,2013-10-05 02:08:00,
2013-10-04 21:13:00,74.8,67.6,30.02,SSE,157,1.2,3.8,78,0.00,,,0.00,WUHU21623XXSP,2013-10-05 02:13:00,
2013-10-04 21:18:00,74.8,67.2,30.02,SSE,157,5.4,5.4,77,0.00,,,0.00,WUHU21623XXSP,2013-10-05 02:18:00,
2013-10-04 21:23:00,74.8,67.2,30.03,SSE,168,2.9,5.4,77,0.00,,,0.00,WUHU21623XXSP,2013-10-05 02:23:00,
2013-10-04 21:28:00,74.8,66.9,30.03,South,176,3.7,6.0,76,0.00,,,0.00,WUHU21623XXSP,2013-10-05 02:28:00,
2013-10-04 21:33:00,75.0,67.1,30.03,SSE,168,1.3,6.0,76,0.00,,,0.00,WUHU21623XXSP,2013-10-05 02:33:00,
2013-10-04 21:38:00,75.0,67.1,30.03,South,179,2.7,5.6,76,0.00,,,0.00,WUHU21623XXSP,2013-10-05 02:38:00,
2013-10-04 21:43:00,75.0,67.4,30.03,SSE,158,2.2,4.7,77,0.00,,,0.00,WUHU21623XXSP,2013-10-05 02:43:00,
2013-10-04 21:48:00,75.0,67.4,30.03,SSE,160,2.1,4.5,77,0.00,,,0.00,WUHU21623XXSP,2013-10-05 02:48:00,
2013-10-04 21:53:00,74.8,67.2,30.03,South,178,2.1,4.3,77,0.00,,,0.00,WUHU21623XXSP,2013-10-05 02:53:00,
2013-10-04 21:58:00,74.8,67.2,30.03,South,180,3.3,4.3,77,0.00,,,0.00,WUHU21623XXSP,2013-10-05 02:58:00,
2013-10-04 22:03:00,74.5,66.9,30.03,SSE,166,1.9,4.3,77,0.00,,,0.00,WUHU21623XXSP,2013-10-05 03:03:00,
2013-10-04 22:08:00,74.5,66.6,30.03,SSE,166,2.0,5.1,76,0.00,,,0.00,WUHU21623XXSP,2013-10-05 03:08:00,
2013-10-04 22:13:00,74.5,66.6,30.03,South,178,2.3,5.1,76,0.00,,,0.00,WUHU21623XXSP,2013-10-05 03:13:00,
2013-10-04 22:18:00,74.5,66.6,30.02,SSE,157,1.6,3.1,76,0.00,,,0.00,WUHU21623XXSP,2013-10-05 03:18:00,
2013-10-04 22:23:00,74.3,66.4,30.03,South,180,1.8,3.6,76,0.00,,,0.00,WUHU21623XXSP,2013-10-05 03:23:00,
2013-10-04 22:28:00,74.3,66.4,30.03,South,186,1.6,3.6,76,0.00,,,0.00,WUHU21623XXSP,2013-10-05 03:28:00,
2013-10-04 22:33:00,74.1,66.2,30.03,South,180,0.0,5.1,76,0.00,,,0.00,WUHU21623XXSP,2013-10-05 03:33:00,
2013-10-04 22:38:00,74.1,66.2,30.03,South,186,2.3,5.1,76,0.00,,,0.00,WUHU21623XXSP,2013-10-05 03:38:00,
2013-10-04 22:43:00,73.9,66.0,30.03,SSE,161,1.6,5.1,76,0.00,,,0.00,WUHU21623XXSP,2013-10-05 03:43:00,
2013-10-04 22:48:00,73.9,65.6,30.03,SSE,161,1.3,3.8,75,0.00,,,0.00,WUHU21623XXSP,2013-10-05 03:48:00,
2013-10-04 22:53:00,73.8,65.5,30.03,South,173,2.8,3.4,75,0.00,,,0.00,WUHU21623XXSP,2013-10-05 03:53:00,
2013-10-04 22:58:00,73.8,65.5,30.03,ESE,112,1.3,3.4,75,0.00,,,0.00,WUHU21623XXSP,2013-10-05 03:58:00,
2013-10-04 23:01:00,73.6,65.3,30.03,South,180,0.7,3.4,75,0.00,,,0.00,WUHU21623XXSP,2013-10-05 04:01:00,
2013-10-04 23:02:00,73.8,65.5,30.03,SSE,157,0.0,3.4,75,0.00,,,0.00,WUHU21623XXSP,2013-10-05 04:02:00,
2013-10-04 23:07:00,73.6,65.3,30.03,South,180,0.0,1.8,75,0.00,,,0.00,WUHU21623XXSP,2013-10-05 04:07:00,
2013-10-04 23:12:00,73.4,65.1,30.03,SSE,153,0.9,1.8,75,0.00,,,0.00,WUHU21623XXSP,2013-10-05 04:12:00,
2013-10-04 23:17:00,73.4,65.1,30.04,SSE,157,1.6,1.6,75,0.00,,,0.00,WUHU21623XXSP,2013-10-05 04:17:00,
2013-10-04 23:22:00,73.2,64.9,30.04,SSE,157,1.0,1.6,75,0.00,,,0.00,WUHU21623XXSP,2013-10-05 04:22:00,
2013-10-04 23:27:00,73.2,64.9,30.04,SSE,165,2.2,3.6,75,0.00,,,0.00,WUHU21623XXSP,2013-10-05 04:27:00,
2013-10-04 23:32:00,73.2,64.6,30.03,SSE,149,1.6,3.8,74,0.00,,,0.00,WUHU21623XXSP,2013-10-05 04:32:00,
2013-10-04 23:37:00,73.2,64.6,30.03,SSE,157,1.8,3.8,74,0.00,,,0.00,WUHU21623XXSP,2013-10-05 04:37:00,
2013-10-04 23:42:00,73.2,64.6,30.03,South,180,2.2,3.6,74,0.00,,,0.00,WUHU21623XXSP,2013-10-05 04:42:00,
2013-10-04 23:47:00,73.2,64.6,30.03,SE,142,0.8,5.6,74,0.00,,,0.00,WUHU21623XXSP,2013-10-05 04:47:00,
2013-10-04 23:52:00,73.6,65.0,30.03,South,180,2.7,5.6,74,0.00,,,0.00,WUHU21623XXSP,2013-10-05 04:52:00,
2013-10-04 23:57:00,73.6,64.6,30.03,South,180,1.7,5.1,73,0.00,,,0.00,WUHU21623XXSP,2013-10-05 04:57:00,